Time;durP1;ratioP1;P1;durP2;ratioP2;P2;SDS_P1;SDS_P2;PMS_P1;PMS_P2;Temp;Humidity;BMP_temperature;BMP_pressure;BME280_temperature;BME280_humidity;BME280_pressure;Samples;Min_cycle;Max_cycle;Signal;HPM_P1;HPM_P2
2024/04/09 00:01:17;;;;;;;;;;;;;;;19.70;63.31;100742.00;5011435;28;19952;-89
2024/04/09 00:03:43;;;;;;;;;;;;;;;19.66;63.30;100733.66;5028990;28;19923;-88
2024/04/09 00:06:14;;;;;;;;;;;;;;;19.63;63.37;100741.63;5029661;28;20074;-89
2024/04/09 00:08:44;;;;;;;;;;;;;;;19.56;64.01;100739.31;5029215;28;19925;-89
2024/04/09 00:11:20;;;;;;;;;;;;;;;19.50;63.84;100749.50;5024603;28;19921;-89
2024/04/09 00:14:04;;;;;;;;;;;;;;;19.47;63.95;100744.69;5024316;28;20000;-90
2024/04/09 00:16:41;;;;;;;;;;;;;;;19.47;63.80;100741.16;5026703;28;19929;-90
2024/04/09 00:19:29;;;;;;;;;;;;;;;19.45;63.58;100741.47;5028195;28;19959;-90
2024/04/09 00:21:54;;;;;;;;;;;;;;;19.40;63.64;100743.50;5028265;28;19921;-88
2024/04/09 00:24:21;;;;;;;;;;;;;;;19.36;63.72;100726.19;5030588;28;20339;-90
2024/04/09 00:26:50;;;;;;;;;;;;;;;19.31;63.75;100721.69;5030002;28;19929;-89
2024/04/09 00:29:17;;;;;;;;;;;;;;;19.27;63.93;100734.28;5028995;28;19920;-89
2024/04/09 00:31:45;;;;;;;;;;;;;;;19.22;64.33;100737.13;5027202;28;20390;-89
2024/04/09 00:34:11;;;;;;;;;;;;;;;19.17;64.51;100731.78;5029381;28;19917;-90
2024/04/09 00:36:38;;;;;;;;;;;;;;;19.14;64.32;100730.47;5026516;28;19968;-90
2024/04/09 00:39:10;;;;;;;;;;;;;;;19.10;64.54;100734.94;5038831;28;19928;-90
2024/04/09 00:41:37;;;;;;;;;;;;;;;19.05;64.99;100732.31;5025292;28;19917;-90
2024/04/09 00:44:07;;;;;;;;;;;;;;;19.00;64.55;100741.38;5027168;28;19925;-90
2024/04/09 00:46:33;;;;;;;;;;;;;;;18.99;64.55;100737.03;5036412;28;19925;-89
2024/04/09 00:49:01;;;;;;;;;;;;;;;18.99;64.23;100730.81;5025630;28;19928;-89
2024/04/09 00:51:32;;;;;;;;;;;;;;;18.98;64.13;100738.16;5020748;28;19928;-89
2024/04/09 00:53:58;;;;;;;;;;;;;;;18.95;64.18;100733.34;5026368;28;19976;-89
2024/04/09 00:56:24;;;;;;;;;;;;;;;18.92;64.13;100739.38;5026113;28;20429;-89
2024/04/09 00:58:50;;;;;;;;;;;;;;;18.88;64.06;100732.16;5029013;28;20021;-90
2024/04/09 01:01:17;;;;;;;;;;;;;;;18.85;64.09;100733.56;5029693;28;19960;-90
2024/04/09 01:03:45;;;;;;;;;;;;;;;18.83;63.86;100729.53;5022685;28;19921;-89
2024/04/09 01:06:11;;;;;;;;;;;;;;;18.78;64.12;100733.16;5026218;28;19917;-90
2024/04/09 01:08:37;;;;;;;;;;;;;;;18.74;63.77;100732.16;5026302;28;19949;-90
2024/04/09 01:11:03;;;;;;;;;;;;;;;18.70;63.77;100736.59;5031101;28;20342;-90
2024/04/09 01:13:28;;;;;;;;;;;;;;;18.66;63.67;100738.28;5030470;28;20332;-89
2024/04/09 01:15:56;;;;;;;;;;;;;;;18.62;63.90;100738.06;5028689;28;19940;-90
2024/04/09 01:18:24;;;;;;;;;;;;;;;18.57;64.17;100731.94;5026842;28;19917;-90
2024/04/09 01:20:49;;;;;;;;;;;;;;;18.52;64.13;100740.19;5023118;28;19925;-89
2024/04/09 01:23:15;;;;;;;;;;;;;;;18.46;64.60;100730.50;5027538;28;19971;-90
2024/04/09 01:25:42;;;;;;;;;;;;;;;18.41;64.57;100729.50;5026422;28;19995;-90
2024/04/09 01:28:10;;;;;;;;;;;;;;;18.40;64.65;100724.38;5027129;28;20015;-89
2024/04/09 01:30:46;;;;;;;;;;;;;;;18.37;64.70;100723.09;5023834;28;19921;-89
2024/04/09 01:33:17;;;;;;;;;;;;;;;18.35;64.64;100729.91;5026286;28;19925;-89
2024/04/09 01:35:46;;;;;;;;;;;;;;;18.32;64.29;100733.25;5026899;28;19984;-90
2024/04/09 01:38:13;;;;;;;;;;;;;;;18.28;64.31;100732.22;5029191;28;19940;-90
2024/04/09 01:40:47;;;;;;;;;;;;;;;18.24;64.43;100732.00;5027722;28;20033;-90
2024/04/09 01:43:14;;;;;;;;;;;;;;;18.21;64.27;100735.31;5024702;28;20487;-90
2024/04/09 01:45:41;;;;;;;;;;;;;;;18.17;64.45;100737.03;5030213;28;19971;-90
2024/04/09 01:48:09;;;;;;;;;;;;;;;18.08;65.51;100746.94;5027495;28;19921;-89
2024/04/09 01:50:39;;;;;;;;;;;;;;;18.01;65.10;100741.91;5023374;28;19928;-90
2024/04/09 01:53:06;;;;;;;;;;;;;;;17.99;64.98;100741.41;5027215;28;19925;-90
2024/04/09 01:55:36;;;;;;;;;;;;;;;17.94;65.35;100733.34;5028059;28;19917;-90
2024/04/09 01:58:07;;;;;;;;;;;;;;;17.90;65.57;100751.31;5028588;28;20152;-90
2024/04/09 02:00:44;;;;;;;;;;;;;;;17.86;65.10;100746.78;5022095;28;20358;-90
2024/04/09 02:03:12;;;;;;;;;;;;;;;17.81;64.97;100726.81;5026948;28;20019;-90
2024/04/09 02:05:39;;;;;;;;;;;;;;;17.81;65.32;100736.84;5029169;28;19961;-90
2024/04/09 02:08:05;;;;;;;;;;;;;;;17.73;66.45;100741.00;5029269;28;19930;-88
2024/04/09 02:10:31;;;;;;;;;;;;;;;17.59;66.72;100742.81;5023462;28;19991;-89
2024/04/09 02:12:57;;;;;;;;;;;;;;;17.52;66.93;100735.09;5022876;28;19925;-89
2024/04/09 02:15:25;;;;;;;;;;;;;;;17.55;67.13;100738.31;5025770;28;19971;-89
2024/04/09 02:17:53;;;;;;;;;;;;;;;17.55;66.70;100741.81;5024202;28;19927;-89
2024/04/09 02:20:23;;;;;;;;;;;;;;;17.55;66.85;100741.81;5024811;28;19925;-90
2024/04/09 02:22:52;;;;;;;;;;;;;;;17.55;67.17;100749.13;5028791;28;19971;-89
2024/04/09 02:25:27;;;;;;;;;;;;;;;17.50;66.91;100747.31;5025593;28;19918;-89
2024/04/09 02:27:54;;;;;;;;;;;;;;;17.50;67.09;100755.44;5027173;28;19921;-90
2024/04/09 02:30:25;;;;;;;;;;;;;;;17.49;66.99;100749.22;5030156;28;19984;-90
2024/04/09 02:33:13;;;;;;;;;;;;;;;17.49;67.86;100756.53;5033268;28;19917;-89
2024/04/09 02:37:29;;;;;;;;;;;;;;;17.41;67.39;100760.69;5025464;28;20191;-90
2024/04/09 02:39:56;;;;;;;;;;;;;;;17.41;67.78;100757.19;5027135;28;20324;-89
2024/04/09 02:42:24;;;;;;;;;;;;;;;17.39;67.95;100762.09;5029732;28;19983;-90
2024/04/09 02:44:53;;;;;;;;;;;;;;;17.38;67.44;100760.50;5027754;28;20573;-89
2024/04/09 02:47:20;;;;;;;;;;;;;;;17.37;67.59;100756.16;5034078;28;19925;-89
2024/04/09 02:49:52;;;;;;;;;;;;;;;17.38;67.13;100755.06;5030249;28;19948;-89
2024/04/09 02:52:22;;;;;;;;;;;;;;;17.38;67.14;100757.78;5031108;28;19971;-90
2024/04/09 02:54:52;;;;;;;;;;;;;;;17.36;66.76;100752.66;5030516;28;19979;-89
2024/04/09 02:57:20;;;;;;;;;;;;;;;17.33;66.78;100750.53;5032517;28;19992;-90
2024/04/09 02:59:48;;;;;;;;;;;;;;;17.34;66.68;100751.34;5030281;28;19983;-89
2024/04/09 03:02:19;;;;;;;;;;;;;;;17.30;66.83;100759.25;5028466;28;19925;-90
2024/04/09 03:04:50;;;;;;;;;;;;;;;17.26;67.14;100758.25;5031569;28;20004;-90
2024/04/09 03:07:16;;;;;;;;;;;;;;;17.24;66.77;100748.81;5032593;28;19925;-89
2024/04/09 03:09:43;;;;;;;;;;;;;;;17.20;66.50;100733.13;5032364;28;19921;-90
2024/04/09 03:12:12;;;;;;;;;;;;;;;17.17;67.43;100739.13;5030306;28;19924;-89
2024/04/09 03:14:50;;;;;;;;;;;;;;;17.10;67.86;100735.97;5031053;28;19924;-89
2024/04/09 03:17:17;;;;;;;;;;;;;;;17.03;68.14;100735.50;5021919;28;20619;-89
2024/04/09 03:19:54;;;;;;;;;;;;;;;16.98;67.94;100735.59;5028951;28;19925;-90
2024/04/09 03:22:22;;;;;;;;;;;;;;;16.98;67.64;100749.13;5029304;28;20392;-90
2024/04/09 03:25:10;;;;;;;;;;;;;;;16.96;68.46;100748.63;5030778;28;19944;-90
2024/04/09 03:27:41;;;;;;;;;;;;;;;16.91;69.20;100752.19;5026250;28;19925;-90
2024/04/09 03:30:10;;;;;;;;;;;;;;;16.86;68.67;100754.13;5032800;28;19967;-89
2024/04/09 03:32:37;;;;;;;;;;;;;;;16.86;68.67;100759.56;5032285;28;20020;-90
2024/04/09 03:35:07;;;;;;;;;;;;;;;16.81;69.35;100762.31;5034001;28;20168;-90
2024/04/09 03:37:47;;;;;;;;;;;;;;;16.77;69.20;100767.53;5027497;28;19995;-90
2024/04/09 03:40:15;;;;;;;;;;;;;;;16.78;69.25;100757.50;5024343;28;19924;-89
2024/04/09 03:42:42;;;;;;;;;;;;;;;16.78;69.29;100763.72;5029858;28;19922;-90
2024/04/09 03:45:17;;;;;;;;;;;;;;;16.78;68.57;100763.72;5023815;28;19971;-90
2024/04/09 03:47:47;;;;;;;;;;;;;;;16.77;68.41;100755.88;5025904;28;19922;-88
2024/04/09 03:50:15;;;;;;;;;;;;;;;16.77;68.24;100762.09;5026528;28;19917;-90
2024/04/09 03:52:41;;;;;;;;;;;;;;;16.74;68.05;100762.69;5026955;28;19925;-89
2024/04/09 03:55:10;;;;;;;;;;;;;;;16.73;67.88;100757.56;5031669;28;20512;-90
2024/04/09 03:57:38;;;;;;;;;;;;;;;16.73;67.95;100757.56;5027451;28;19944;-90
2024/04/09 04:00:12;;;;;;;;;;;;;;;16.71;68.14;100759.75;5031002;28;19925;-90
2024/04/09 04:02:39;;;;;;;;;;;;;;;16.70;67.79;100758.16;5030882;28;19917;-90
2024/04/09 04:05:17;;;;;;;;;;;;;;;16.68;68.05;100760.31;5027113;28;19928;-90
2024/04/09 04:07:44;;;;;;;;;;;;;;;16.64;68.31;100751.94;5029502;28;20262;-89
2024/04/09 04:10:13;;;;;;;;;;;;;;;16.62;68.20;100749.53;5026703;28;20016;-90
2024/04/09 04:12:41;;;;;;;;;;;;;;;16.62;67.75;100754.94;5029053;28;19928;-90
2024/04/09 04:15:11;;;;;;;;;;;;;;;16.61;67.82;100756.03;5029254;28;20012;-89
2024/04/09 04:17:36;;;;;;;;;;;;;;;16.58;67.95;100753.91;5028705;28;19991;-89
2024/04/09 04:20:03;;;;;;;;;;;;;;;16.55;68.43;100757.19;5047281;28;21378;-89
2024/04/09 04:22:30;;;;;;;;;;;;;;;16.50;68.63;100751.81;5025636;28;19960;-89
2024/04/09 04:24:58;;;;;;;;;;;;;;;16.46;69.72;100753.50;5029421;28;20480;-90
2024/04/09 04:27:25;;;;;;;;;;;;;;;16.41;70.69;100753.56;5029741;28;19983;-89
2024/04/09 04:29:50;;;;;;;;;;;;;;;16.39;70.22;100750.34;5025148;28;19917;-89
2024/04/09 04:32:18;;;;;;;;;;;;;;;16.40;70.38;100753.84;5027336;28;19917;-89
2024/04/09 04:34:44;;;;;;;;;;;;;;;16.41;69.71;100758.16;5031500;28;19917;-89
2024/04/09 04:37:12;;;;;;;;;;;;;;;16.41;69.93;100750.84;5028743;28;19917;-89
2024/04/09 04:39:38;;;;;;;;;;;;;;;16.42;69.58;100744.34;5023294;28;20381;-89
2024/04/09 04:42:04;;;;;;;;;;;;;;;16.43;69.76;100745.97;5030164;28;19996;-90
2024/04/09 04:44:33;;;;;;;;;;;;;;;16.44;69.69;100749.47;5029336;28;20400;-89
2024/04/09 04:47:01;;;;;;;;;;;;;;;16.44;69.26;100752.97;5028899;28;19960;-89
2024/04/09 04:49:26;;;;;;;;;;;;;;;16.43;69.28;100742.44;5021265;28;19924;-89
2024/04/09 04:51:52;;;;;;;;;;;;;;;16.44;69.04;100752.97;5029714;28;19925;-89
2024/04/09 04:54:19;;;;;;;;;;;;;;;16.44;69.69;100746.75;5026873;28;19939;-90
2024/04/09 04:56:44;;;;;;;;;;;;;;;16.44;69.93;100744.88;5026810;28;20130;-90
2024/04/09 04:59:10;;;;;;;;;;;;;;;16.45;70.74;100742.97;5034973;28;19924;-90
2024/04/09 05:01:36;;;;;;;;;;;;;;;16.45;70.36;100738.34;5030783;28;19928;-89
2024/04/09 05:04:02;;;;;;;;;;;;;;;16.48;70.26;100737.78;5044672;28;19925;-89
2024/04/09 05:06:29;;;;;;;;;;;;;;;16.52;70.18;100744.25;5030875;28;19928;-88
2024/04/09 05:08:59;;;;;;;;;;;;;;;16.56;70.28;100737.16;5029959;28;19917;-89
2024/04/09 05:11:26;;;;;;;;;;;;;;;16.60;70.78;100750.91;5031414;28;19920;-89
2024/04/09 05:13:54;;;;;;;;;;;;;;;16.63;70.57;100750.34;5028686;28;19925;-89
2024/04/09 05:16:20;;;;;;;;;;;;;;;16.67;71.00;100745.97;5031273;28;19996;-88
2024/04/09 05:18:46;;;;;;;;;;;;;;;16.71;70.97;100743.53;5030541;28;19917;-89
2024/04/09 05:21:14;;;;;;;;;;;;;;;16.75;71.79;100739.16;5024336;28;19913;-88
2024/04/09 05:23:43;;;;;;;;;;;;;;;16.78;71.62;100738.56;5031815;28;20317;-89
2024/04/09 05:26:09;;;;;;;;;;;;;;;16.84;71.17;100737.38;5030821;28;20011;-89
2024/04/09 05:28:36;;;;;;;;;;;;;;;16.89;71.53;100732.75;5031615;28;20001;-89
2024/04/09 05:31:01;;;;;;;;;;;;;;;16.95;71.73;100732.66;5025552;28;19924;-89
2024/04/09 05:33:27;;;;;;;;;;;;;;;16.99;72.21;100731.78;5030523;28;19921;-89
2024/04/09 05:35:52;;;;;;;;;;;;;;;17.05;72.00;100730.63;5027458;28;19960;-89
2024/04/09 05:38:19;;;;;;;;;;;;;;;17.13;72.48;100737.28;5026618;28;19921;-90
2024/04/09 05:40:46;;;;;;;;;;;;;;;17.18;72.62;100735.31;5026300;28;19936;-90
2024/04/09 05:43:23;;;;;;;;;;;;;;;17.25;73.16;100734.16;5032736;28;19928;-90
2024/04/09 05:45:51;;;;;;;;;;;;;;;17.33;73.27;100741.63;5046812;28;20345;-91
2024/04/09 05:48:29;;;;;;;;;;;;;;;17.38;73.32;100739.63;5028298;28;19925;-90
2024/04/09 05:50:55;;;;;;;;;;;;;;;17.45;73.85;100739.28;5025715;28;19965;-90
2024/04/09 05:53:25;;;;;;;;;;;;;;;17.52;73.69;100735.09;5022060;28;19961;-90
2024/04/09 05:55:56;;;;;;;;;;;;;;;17.60;73.22;100730.13;5023207;28;19914;-90
2024/04/09 05:58:24;;;;;;;;;;;;;;;17.68;73.22;100738.41;5026477;28;19917;-90
2024/04/09 06:00:53;;;;;;;;;;;;;;;17.77;73.27;100733.09;5019844;28;19967;-91
2024/04/09 06:03:19;;;;;;;;;;;;;;;17.87;73.67;100729.41;5021961;28;19917;-90
2024/04/09 06:05:51;;;;;;;;;;;;;;;17.95;73.70;100726.00;5031036;28;19913;-91
2024/04/09 06:08:17;;;;;;;;;;;;;;;18.04;73.87;100724.25;5042098;28;19922;-91
2024/04/09 06:10:45;;;;;;;;;;;;;;;18.12;74.20;100720.84;5023728;28;20489;-91
2024/04/09 06:13:14;;;;;;;;;;;;;;;18.20;74.19;100722.88;5029934;28;19920;-91
2024/04/09 06:15:41;;;;;;;;;;;;;;;18.26;74.60;100721.66;5032875;28;20007;-90
2024/04/09 06:18:10;;;;;;;;;;;;;;;18.33;75.09;100719.38;5016072;28;20431;-91
2024/04/09 06:20:36;;;;;;;;;;;;;;;18.39;74.98;100720.06;5021324;28;19917;-91
2024/04/09 06:23:02;;;;;;;;;;;;;;;18.44;75.26;100717.25;5029617;28;19929;-90
2024/04/09 06:25:28;;;;;;;;;;;;;;;18.50;75.34;100720.69;5034166;28;20371;-90
2024/04/09 06:27:53;;;;;;;;;;;;;;;18.56;75.65;100714.06;5030790;28;19971;-91
2024/04/09 06:30:23;;;;;;;;;;;;;;;18.62;76.09;100710.13;5029089;28;20027;-90
2024/04/09 06:32:54;;;;;;;;;;;;;;;18.68;76.16;100708.97;5031200;28;19992;-90
2024/04/09 06:35:21;;;;;;;;;;;;;;;18.73;76.25;100711.56;5029864;28;19917;-91
2024/04/09 06:37:47;;;;;;;;;;;;;;;18.81;76.80;100710.03;5032381;28;19917;-90
2024/04/09 06:40:12;;;;;;;;;;;;;;;18.90;76.85;100714.44;5033786;28;19924;-90
2024/04/09 06:42:38;;;;;;;;;;;;;;;19.00;77.08;100713.41;5028599;28;20143;-90
2024/04/09 06:45:05;;;;;;;;;;;;;;;19.11;77.24;100714.00;5048430;28;19925;-90
2024/04/09 06:47:32;;;;;;;;;;;;;;;19.22;77.18;100710.75;5027633;28;19940;-90
2024/04/09 06:50:04;;;;;;;;;;;;;;;19.34;77.14;100712.91;5046725;28;19929;-91
2024/04/09 06:52:31;;;;;;;;;;;;;;;19.44;77.30;100707.25;5028619;28;20171;-91
2024/04/09 06:54:57;;;;;;;;;;;;;;;19.56;77.51;100715.66;5029429;28;19921;-90
2024/04/09 06:57:24;;;;;;;;;;;;;;;19.67;77.38;100707.28;5030015;28;19913;-90
2024/04/09 06:59:52;;;;;;;;;;;;;;;19.77;78.10;100716.00;5043162;28;19922;-90
2024/04/09 07:02:18;;;;;;;;;;;;;;;19.88;78.12;100703.72;5034834;28;19924;-91
2024/04/09 07:04:44;;;;;;;;;;;;;;;19.99;78.30;100704.28;5028675;28;19913;-90
2024/04/09 07:07:14;;;;;;;;;;;;;;;20.12;78.19;100705.31;5029215;28;19956;-90
2024/04/09 07:09:48;;;;;;;;;;;;;;;20.25;78.35;100700.88;5031447;28;19928;-90
2024/04/09 07:12:15;;;;;;;;;;;;;;;20.37;78.54;100692.94;5031894;28;19917;-91
2024/04/09 07:14:46;;;;;;;;;;;;;;;20.50;79.06;100689.31;5030501;28;19921;-90
2024/04/09 07:17:13;;;;;;;;;;;;;;;20.67;79.02;100699.47;5032748;28;20384;-90
2024/04/09 07:19:42;;;;;;;;;;;;;;;20.84;79.34;100693.25;5030633;28;19921;-91
2024/04/09 07:22:09;;;;;;;;;;;;;;;20.98;78.49;100691.97;5031271;28;19916;-91
2024/04/09 07:24:35;;;;;;;;;;;;;;;21.14;77.96;100695.03;5033142;28;19963;-90
2024/04/09 07:27:00;;;;;;;;;;;;;;;21.30;77.53;100700.84;5032289;28;19917;-90
2024/04/09 07:29:28;;;;;;;;;;;;;;;21.43;77.09;100705.31;5028412;28;20008;-90
2024/04/09 07:31:59;;;;;;;;;;;;;;;21.55;78.02;100701.97;5027025;28;19921;-91
2024/04/09 07:34:27;;;;;;;;;;;;;;;21.68;75.56;100695.50;5027278;28;19917;-91
2024/04/09 07:37:14;;;;;;;;;;;;;;;21.81;75.75;100696.44;5031733;28;19917;-91
2024/04/09 07:39:44;;;;;;;;;;;;;;;21.93;75.41;100702.84;5032340;28;19921;-91
2024/04/09 07:42:18;;;;;;;;;;;;;;;22.07;75.04;100697.19;5033354;28;20201;-90
2024/04/09 07:44:45;;;;;;;;;;;;;;;22.20;74.37;100692.66;5027195;28;19921;-91
2024/04/09 07:47:14;;;;;;;;;;;;;;;22.31;74.22;100688.44;5043361;28;19944;-90
2024/04/09 07:49:41;;;;;;;;;;;;;;;22.45;74.10;100691.75;5026623;28;19917;-90
2024/04/09 07:52:11;;;;;;;;;;;;;;;22.59;73.58;100692.31;5032675;28;20393;-90
2024/04/09 07:54:39;;;;;;;;;;;;;;;22.73;74.03;100681.13;5025300;28;19933;-90
2024/04/09 07:57:04;;;;;;;;;;;;;;;22.87;73.64;100681.72;5037667;28;19925;-89
2024/04/09 07:59:31;;;;;;;;;;;;;;;23.02;72.75;100687.72;5031051;28;19920;-90
2024/04/09 08:01:59;;;;;;;;;;;;;;;23.15;72.51;100683.91;5031018;28;20357;-89
2024/04/09 08:04:24;;;;;;;;;;;;;;;23.28;72.18;100685.56;5024669;28;20313;-90
2024/04/09 08:07:02;;;;;;;;;;;;;;;23.42;72.39;100679.84;5028705;28;19921;-90
2024/04/09 08:09:28;;;;;;;;;;;;;;;23.58;71.86;100678.09;5025685;28;19920;-89
2024/04/09 08:11:55;;;;;;;;;;;;;;;23.71;71.49;100678.94;5025664;28;20266;-90
2024/04/09 08:14:22;;;;;;;;;;;;;;;23.86;70.85;100678.28;5031442;28;19944;-90
2024/04/09 08:16:52;;;;;;;;;;;;;;;24.01;70.52;100685.84;5033090;28;20005;-88
2024/04/09 08:19:22;;;;;;;;;;;;;;;24.15;69.82;100682.78;5027269;28;19917;-89
2024/04/09 08:21:49;;;;;;;;;;;;;;;24.28;69.61;100672.63;5026226;28;19917;-89
2024/04/09 08:24:15;;;;;;;;;;;;;;;24.40;69.73;100681.66;5025651;28;20395;-89
2024/04/09 08:26:41;;;;;;;;;;;;;;;24.53;69.34;100673.44;5027828;28;19951;-89
2024/04/09 08:29:08;;;;;;;;;;;;;;;24.68;68.56;100675.50;5024499;28;20352;-89
2024/04/09 08:31:34;;;;;;;;;;;;;;;24.80;67.24;100672.75;5028339;28;19924;-89
2024/04/09 08:33:59;;;;;;;;;;;;;;;24.96;68.26;100676.38;5031115;28;19921;-89
2024/04/09 08:36:27;;;;;;;;;;;;;;;25.11;66.75;100683.06;5026823;28;19924;-90
2024/04/09 08:38:53;;;;;;;;;;;;;;;25.24;66.91;100678.34;5025285;28;19923;-89
2024/04/09 08:41:20;;;;;;;;;;;;;;;25.33;65.63;100675.47;5030082;28;19921;-89
2024/04/09 08:43:48;;;;;;;;;;;;;;;25.43;66.78;100680.44;5026404;28;20000;-89
2024/04/09 08:46:20;;;;;;;;;;;;;;;25.57;66.50;100672.59;5038667;28;20447;-89
2024/04/09 08:48:48;;;;;;;;;;;;;;;25.71;65.42;100672.22;5010248;28;20012;-89
2024/04/09 08:51:19;;;;;;;;;;;;;;;25.84;65.24;100660.00;5029406;28;20369;-89
2024/04/09 08:53:53;;;;;;;;;;;;;;;26.01;65.15;100661.59;5042654;28;19928;-88
2024/04/09 08:56:29;;;;;;;;;;;;;;;26.14;64.46;100658.41;5024169;28;19925;-89
2024/04/09 08:59:04;;;;;;;;;;;;;;;26.31;64.60;100650.97;5020031;28;19944;-88
2024/04/09 09:01:30;;;;;;;;;;;;;;;26.46;64.25;100647.44;5023692;28;19917;-89
2024/04/09 09:03:59;;;;;;;;;;;;;;;26.61;63.23;100646.59;5031148;28;20503;-90
2024/04/09 09:06:29;;;;;;;;;;;;;;;26.75;63.67;100637.84;5027564;28;19921;-90
2024/04/09 09:09:00;;;;;;;;;;;;;;;26.87;62.82;100632.22;5023881;28;19995;-89
2024/04/09 09:11:26;;;;;;;;;;;;;;;27.03;62.81;100626.69;5018827;28;20373;-89
2024/04/09 09:14:04;;;;;;;;;;;;;;;27.13;62.25;100623.38;5043570;28;19929;-89
2024/04/09 09:16:51;;;;;;;;;;;;;;;27.31;61.97;100620.97;5017515;28;19922;-89
2024/04/09 09:19:19;;;;;;;;;;;;;;;27.46;61.67;100619.25;5028397;28;19917;-88
2024/04/09 09:22:08;;;;;;;;;;;;;;;27.61;61.57;100618.34;5018644;28;19928;-88
2024/04/09 09:24:35;;;;;;;;;;;;;;;27.81;61.24;100616.38;5027721;28;19924;-88
2024/04/09 09:27:21;;;;;;;;;;;;;;;27.95;60.68;100611.91;5025310;28;19921;-88
2024/04/09 09:29:53;;;;;;;;;;;;;;;28.10;60.19;100612.13;5020037;28;20012;-88
2024/04/09 09:32:23;;;;;;;;;;;;;;;28.19;58.86;100604.41;5025539;28;19932;-88
2024/04/09 09:34:53;;;;;;;;;;;;;;;28.29;59.14;100599.06;5022675;28;19979;-88
2024/04/09 09:37:22;;;;;;;;;;;;;;;28.39;58.59;100597.66;5021778;28;19921;-88
2024/04/09 09:39:51;;;;;;;;;;;;;;;28.54;58.72;100598.63;5019835;28;19975;-84
2024/04/09 09:42:20;;;;;;;;;;;;;;;28.67;57.97;100597.22;5029649;28;19917;-87
2024/04/09 09:44:50;;;;;;;;;;;;;;;28.77;57.38;100590.28;5027466;28;20353;-87
2024/04/09 09:47:18;;;;;;;;;;;;;;;28.88;57.29;100588.44;5027250;28;20040;-87
2024/04/09 09:49:51;;;;;;;;;;;;;;;28.95;57.11;100591.31;5024820;28;19914;-87
2024/04/09 09:52:17;;;;;;;;;;;;;;;29.07;56.63;100588.28;5028284;28;20011;-87
2024/04/09 09:54:43;;;;;;;;;;;;;;;29.20;56.22;100580.53;5021256;28;20024;-87
2024/04/09 09:57:12;;;;;;;;;;;;;;;29.35;55.70;100573.19;5029370;28;19968;-87
2024/04/09 09:59:46;;;;;;;;;;;;;;;29.50;55.46;100577.72;5023462;28;20011;-87
2024/04/09 10:02:13;;;;;;;;;;;;;;;29.65;55.63;100564.84;5038718;28;19976;-87
2024/04/09 10:04:39;;;;;;;;;;;;;;;29.78;54.54;100572.41;5021290;28;20008;-87
2024/04/09 10:07:06;;;;;;;;;;;;;;;29.92;54.56;100576.47;5027642;28;20020;-87
2024/04/09 10:09:52;;;;;;;;;;;;;;;30.04;53.38;100565.16;5022164;28;19956;-88
2024/04/09 10:12:19;;;;;;;;;;;;;;;30.16;53.39;100556.53;5024306;28;19929;-87
2024/04/09 10:14:51;;;;;;;;;;;;;;;30.23;52.76;100553.03;5022570;28;19917;-88
2024/04/09 10:17:17;;;;;;;;;;;;;;;30.33;52.48;100547.56;5025664;28;19968;-86
2024/04/09 10:19:44;;;;;;;;;;;;;;;30.44;52.11;100544.84;5023306;28;19957;-87
2024/04/09 10:22:15;;;;;;;;;;;;;;;30.56;51.46;100552.81;5023287;28;20343;-88
2024/04/09 10:24:43;;;;;;;;;;;;;;;30.71;51.25;100544.63;5025500;28;19926;-87
2024/04/09 10:27:13;;;;;;;;;;;;;;;30.81;50.79;100533.56;5020909;28;20382;-87
2024/04/09 10:30:01;;;;;;;;;;;;;;;30.94;49.87;100532.03;5025389;28;20804;-87
2024/04/09 10:32:26;;;;;;;;;;;;;;;31.09;49.33;100529.31;5017202;28;19917;-88
2024/04/09 10:34:52;;;;;;;;;;;;;;;31.12;48.88;100523.75;5022659;28;19921;-87
2024/04/09 10:37:20;;;;;;;;;;;;;;;31.24;49.20;100528.16;5025155;28;19917;-87
2024/04/09 10:39:50;;;;;;;;;;;;;;;31.32;48.18;100524.22;5021275;28;19988;-87
2024/04/09 10:42:20;;;;;;;;;;;;;;;31.45;47.61;100533.72;5021099;28;20003;-87
2024/04/09 10:44:48;;;;;;;;;;;;;;;31.56;47.27;100517.09;5034992;28;19932;-87
2024/04/09 10:47:18;;;;;;;;;;;;;;;31.71;48.04;100515.09;5019807;28;19948;-87
2024/04/09 10:49:48;;;;;;;;;;;;;;;31.82;45.89;100521.47;5025446;28;19928;-87
2024/04/09 10:52:22;;;;;;;;;;;;;;;31.87;47.00;100518.28;5019913;28;20377;-88
2024/04/09 10:54:52;;;;;;;;;;;;;;;31.94;45.34;100515.47;5019300;28;19956;-87
2024/04/09 10:57:20;;;;;;;;;;;;;;;31.98;44.59;100509.97;5021551;28;19928;-87
2024/04/09 10:59:49;;;;;;;;;;;;;;;32.07;45.99;100497.25;5034668;28;19921;-86
2024/04/09 11:02:18;;;;;;;;;;;;;;;32.05;44.27;100498.84;5025466;28;19948;-87
2024/04/09 11:04:46;;;;;;;;;;;;;;;32.14;44.67;100493.69;5027372;28;19928;-87
2024/04/09 11:07:52;;;;;;;;;;;;;;;32.28;44.38;100490.88;5021750;28;19929;-87
2024/04/09 11:10:39;;;;;;;;;;;;;;;32.38;41.41;100486.47;5021513;28;19976;-87
2024/04/09 11:13:07;;;;;;;;;;;;;;;32.39;43.12;100488.06;5021216;28;19921;-87
2024/04/09 11:15:33;;;;;;;;;;;;;;;32.40;42.82;100492.41;5016640;28;19940;-87
2024/04/09 11:18:08;;;;;;;;;;;;;;;32.41;41.30;100494.78;5024914;28;20138;-87
2024/04/09 11:20:37;;;;;;;;;;;;;;;32.51;41.80;100495.94;5020262;28;19930;-88
2024/04/09 11:23:07;;;;;;;;;;;;;;;32.57;41.04;100499.88;5023759;28;20405;-87
2024/04/09 11:25:39;;;;;;;;;;;;;;;32.55;39.26;100493.94;5022710;28;20004;-87
2024/04/09 11:28:06;;;;;;;;;;;;;;;32.55;40.47;100499.47;5026141;28;19937;-87
2024/04/09 11:30:36;;;;;;;;;;;;;;;32.51;39.87;100498.72;5022378;28;19925;-87
2024/04/09 11:33:02;;;;;;;;;;;;;;;32.50;37.99;100491.59;5022175;28;20461;-89
2024/04/09 11:35:28;;;;;;;;;;;;;;;32.52;38.86;100491.97;5024105;28;19932;-89
2024/04/09 11:37:55;;;;;;;;;;;;;;;32.59;40.37;100483.59;5019739;28;19921;-87
2024/04/09 11:40:26;;;;;;;;;;;;;;;32.68;40.04;100480.41;5023996;28;19983;-88
2024/04/09 11:42:57;;;;;;;;;;;;;;;32.75;40.16;100481.13;5019413;28;19921;-86
2024/04/09 11:45:27;;;;;;;;;;;;;;;32.84;39.71;100477.13;5019494;28;19927;-87
2024/04/09 11:47:56;;;;;;;;;;;;;;;32.80;39.39;100477.16;5026420;28;19917;-87
2024/04/09 11:50:27;;;;;;;;;;;;;;;32.83;39.10;100475.56;5014790;28;20011;-87
2024/04/09 11:52:56;;;;;;;;;;;;;;;32.74;37.91;100474.00;5022946;28;20370;-87
2024/04/09 11:55:23;;;;;;;;;;;;;;;32.70;38.11;100470.47;5020413;28;20412;-87
2024/04/09 11:57:50;;;;;;;;;;;;;;;32.73;38.42;100474.41;5016381;28;20406;-87
2024/04/09 12:00:16;;;;;;;;;;;;;;;32.73;37.83;100479.97;5023421;28;19921;-87
2024/04/09 12:02:42;;;;;;;;;;;;;;;32.68;37.42;100474.84;5020911;28;19922;-86
2024/04/09 12:05:10;;;;;;;;;;;;;;;32.66;37.57;100466.91;5021027;28;20071;-86
2024/04/09 12:07:42;;;;;;;;;;;;;;;32.71;36.69;100462.94;5020123;28;19935;-87
2024/04/09 12:10:12;;;;;;;;;;;;;;;32.77;37.19;100461.31;5024760;28;19917;-86
2024/04/09 12:12:40;;;;;;;;;;;;;;;32.77;37.09;100466.84;5020781;28;19995;-88
2024/04/09 12:15:08;;;;;;;;;;;;;;;32.72;36.98;100459.75;5026316;28;19983;-87
2024/04/09 12:17:37;;;;;;;;;;;;;;;32.82;37.56;100460.13;5022948;28;19921;-86
2024/04/09 12:20:03;;;;;;;;;;;;;;;32.96;37.42;100458.03;5021881;28;19928;-86
2024/04/09 12:22:29;;;;;;;;;;;;;;;33.05;37.39;100454.81;5019489;28;19940;-86
2024/04/09 12:24:56;;;;;;;;;;;;;;;33.09;37.07;100469.44;5021694;28;19921;-86
2024/04/09 12:27:32;;;;;;;;;;;;;;;33.13;37.00;100461.09;5020987;28;19966;-86
2024/04/09 12:29:58;;;;;;;;;;;;;;;33.12;36.92;100474.19;5022465;28;19922;-86
2024/04/09 12:32:25;;;;;;;;;;;;;;;33.04;36.85;100464.34;5022192;28;19932;-86
2024/04/09 12:34:56;;;;;;;;;;;;;;;33.05;36.85;100449.25;5021990;28;20382;-86
2024/04/09 12:37:24;;;;;;;;;;;;;;;33.12;37.01;100457.53;5022437;28;19932;-86
2024/04/09 12:39:50;;;;;;;;;;;;;;;33.19;36.37;100451.91;5018866;28;20014;-86
2024/04/09 12:42:15;;;;;;;;;;;;;;;33.22;36.82;100442.78;5019416;28;19921;-86
2024/04/09 12:44:42;;;;;;;;;;;;;;;33.27;37.18;100436.00;5018229;28;20282;-87
2024/04/09 12:47:07;;;;;;;;;;;;;;;33.48;37.01;100429.47;5020618;28;19927;-86